Terminal Aerodrome Forecast
Issued by NWS Mt. Holly, NJ

Home | Current Version | Previous Version | Text Only | Print | Product List | Glossary On
Versions: 1 2 3 4 5 6 7 8 9 10 11 12 13 14 15 16 17 18 19 20 21 22 23 24 25 26 27 28 29 30 31
000
FTUS41 KPHI 282056 AAA
TAFPHL
TAF AMD
KPHL 282056Z 2821/2924 31015G25KT P6SM BKN070 OVC090
     FM290300 33015G25KT P6SM SCT070 BKN150
     FM290900 33012G22KT P6SM SCT100
     FM291200 33012KT P6SM SKC
     FM291800 30008KT P6SM SKC=

USA.gov is the U.S. government's official web portal to all federal, state and local government web resources and services.